Mt Champion Express — A8QN4 — position and weather

sailwx.info

Track history (hours):
 
Tides and Currents Weather Stations Pressure Air Temp Water Temp Dewpoint Dewpoint Depression Visibility Wind Speed Wind Dir Waves Ship Positions

Mt Champion Express

Last reported at 2015-Jul-31 16:32 UTC. Time now 2015-Jul-31 17:27 UTC.
Position N 40°38' W 074°04'.

Length 192 m; draft 7 m.

Type: Tanker. MMSI: 636013968.

Date/timePositionNaut miles runAvg speedWind from/ knotsBaromVisibWave heightAir tempDewpointWater temp
2015-Jul-31 16:32N 40°38' W 074°04'0 0.0
2015-Jul-31 15:32N 40°38' W 074°04'0 0.2
2015-Jul-31 14:29N 40°38' W 074°04'0 0.1
2015-Jul-31 13:32N 40°38' W 074°04'0 0.0
2015-Jul-31 12:32N 40°38' W 074°04'0 0.0
2015-Jul-31 11:32N 40°38' W 074°04'0 0.1
2015-Jul-31 10:32N 40°38' W 074°04'0 0.1
2015-Jul-31 09:32N 40°38' W 074°04'0 0.2
2015-Jul-31 08:33N 40°38' W 074°04'1 1.0
2015-Jul-31 07:33N 40°37' W 074°03'8 7.6
2015-Jul-31 06:33N 40°30' W 073°58'9 8.7
2015-Jul-31 05:33N 40°27' W 073°47'5 2.3
2015-Jul-31 03:32N 40°29' W 073°42'0 0.0
2015-Jul-31 02:32N 40°29' W 073°42'0 0.0
2015-Jul-30 22:11N 40°30' W 073°42'0 0.0
2015-Jul-30 21:32N 40°30' W 073°42'0 0.0
2015-Jul-30 20:32N 40°30' W 073°42'14 1.5
2015-Jul-30 11:21N 40°29' W 073°24'1111.8
2015-Jul-30 10:26N 40°30' W 073°09'1111.9
2015-Jul-30 09:33N 40°30' W 072°55'1211.9
2015-Jul-30 08:33N 40°31' W 072°40'1211.8
2015-Jul-30 07:34N 40°31' W 072°24'1211.8
2015-Jul-30 06:33N 40°31' W 072°09'1211.9
2015-Jul-30 05:34N 40°32' W 071°53'1212.0
2015-Jul-30 04:34N 40°32' W 071°38'1211.8
2015-Jul-30 03:34N 40°32' W 071°22'1211.8
2015-Jul-30 02:33N 40°33' W 071°06'1010.3
2015-Jul-30 01:33N 40°33' W 070°53'1111.4
2015-Jul-30 00:33N 40°33' W 070°38'1211.8
2015-Jul-29 23:33N 40°33' W 070°23'1212.1
2015-Jul-29 22:34N 40°34' W 070°07'1212.2
2015-Jul-29 21:33N 40°34' W 069°51'1212.2
2015-Jul-29 20:33N 40°35' W 069°35'1312.6
2015-Jul-29 19:33N 40°35' W 069°18'1812.3
2015-Jul-29 18:06N 40°35' W 068°54'712.0
2015-Jul-29 17:33N 40°35' W 068°46'1211.8
2015-Jul-29 16:33N 40°35' W 068°30'  
Track history (hours):
 
Tides and Currents Weather Stations Pressure Air Temp Water Temp Dewpoint Dewpoint Depression Visibility Wind Speed Wind Dir Waves Ship Positions

Mt Champion Express

Last reported at 2015-Jul-31 16:32 UTC. Time now 2015-Jul-31 17:27 UTC.
Position N 40°38' W 074°04'.

Length 192 m; draft 7 m.

Type: Tanker. MMSI: 636013968.

Date/timePositionNaut miles runAvg speedWind from/ knotsBaromVisibWave heightAir tempDewpointWater temp
2015-Jul-31 16:32N 40°38' W 074°04'0 0.0
2015-Jul-31 15:32N 40°38' W 074°04'0 0.2
2015-Jul-31 14:29N 40°38' W 074°04'0 0.1
2015-Jul-31 13:32N 40°38' W 074°04'0 0.0
2015-Jul-31 12:32N 40°38' W 074°04'0 0.0
2015-Jul-31 11:32N 40°38' W 074°04'0 0.1
2015-Jul-31 10:32N 40°38' W 074°04'0 0.1
2015-Jul-31 09:32N 40°38' W 074°04'0 0.2
2015-Jul-31 08:33N 40°38' W 074°04'1 1.0
2015-Jul-31 07:33N 40°37' W 074°03'8 7.6
2015-Jul-31 06:33N 40°30' W 073°58'9 8.7
2015-Jul-31 05:33N 40°27' W 073°47'5 2.3
2015-Jul-31 03:32N 40°29' W 073°42'0 0.0
2015-Jul-31 02:32N 40°29' W 073°42'0 0.0
2015-Jul-30 22:11N 40°30' W 073°42'0 0.0
2015-Jul-30 21:32N 40°30' W 073°42'0 0.0
2015-Jul-30 20:32N 40°30' W 073°42'14 1.5
2015-Jul-30 11:21N 40°29' W 073°24'1111.8
2015-Jul-30 10:26N 40°30' W 073°09'1111.9
2015-Jul-30 09:33N 40°30' W 072°55'1211.9
2015-Jul-30 08:33N 40°31' W 072°40'1211.8
2015-Jul-30 07:34N 40°31' W 072°24'1211.8
2015-Jul-30 06:33N 40°31' W 072°09'1211.9
2015-Jul-30 05:34N 40°32' W 071°53'1212.0
2015-Jul-30 04:34N 40°32' W 071°38'1211.8
2015-Jul-30 03:34N 40°32' W 071°22'1211.8
2015-Jul-30 02:33N 40°33' W 071°06'1010.3
2015-Jul-30 01:33N 40°33' W 070°53'1111.4
2015-Jul-30 00:33N 40°33' W 070°38'1211.8
2015-Jul-29 23:33N 40°33' W 070°23'1212.1
2015-Jul-29 22:34N 40°34' W 070°07'1212.2
2015-Jul-29 21:33N 40°34' W 069°51'1212.2
2015-Jul-29 20:33N 40°35' W 069°35'1312.6
2015-Jul-29 19:33N 40°35' W 069°18'1812.3
2015-Jul-29 18:06N 40°35' W 068°54'712.0
2015-Jul-29 17:33N 40°35' W 068°46'1211.8
2015-Jul-29 16:33N 40°35' W 068°30'  

Dump ship's entire track history